Latest Weather Observations for Warrnambool

IDV60801

Issued at 9:02 pm EST Saturday 30 July 2016 (issued every 30 minutes, with the page automatically refreshed every 10 minutes)

About weather observations | Map of weather stations | Latest weather observations for VIC | Other Formats
Station Details ID: 090186 Name: WARRNAMBOOL AIRPORT NDB Lat: -38.29 Lon: 142.45 Height: 70.8 m
Data from the previous 72 hours. | See also: Recent months at Warrnambool
Date/Time
EST
Temp
°C
App
Temp
°C
Dew
Point
°C
Rel
Hum
%
Delta-T
°C
Wind Press
QNH
hPa
Press
MSL
hPa
Rain since
9am
mm
Dir  Spd
km/h
Gust
km/h
Spd
kts
Gust
kts
30/09:00pm 13.1 5.7 9.7 80 1.7 NNW 39 56 21 30 1011.3 1011.4 0.2
30/08:37pm 13.3 5.9 9.7 79 1.9 NNW 39 57 21 31 1011.0 1011.1 0.2
30/08:30pm 13.3 5.9 9.7 79 1.9 NNW 39 56 21 30 1011.0 1011.1 0.2
30/08:19pm 13.3 6.2 9.7 79 1.8 NNW 37 56 20 30 1010.8 1010.9 0.2
30/08:00pm 13.2 6.1 9.6 79 1.8 NNW 37 54 20 29 1010.6 1010.7 0.2
30/07:30pm 13.0 5.1 9.3 78 1.9 NNW 41 57 22 31 1010.6 1010.7 0.2
30/07:16pm 13.3 5.0 9.4 77 2.0 N 43 61 23 33 1010.3 1010.4 0.2
30/07:00pm 13.4 5.8 9.1 75 2.2 NNW 39 50 21 27 1010.4 1010.5 0.2
30/06:30pm 13.6 6.7 8.7 72 2.5 N 35 44 19 24 1010.5 1010.6 0.2
30/06:00pm 12.7 7.2 9.0 78 1.9 N 28 37 15 20 1010.0 1010.1 0.2
30/05:30pm 12.7 6.5 9.2 79 1.8 N 32 41 17 22 1009.9 1010.0 0.2
30/05:00pm 12.6 6.4 9.2 80 1.7 N 32 39 17 21 1010.3 1010.4 0.2
30/04:30pm 12.7 6.3 9.5 81 1.6 N 33 41 18 22 1010.6 1010.7 0.2
30/04:10pm 12.8 7.0 9.4 80 1.7 N 30 48 16 26 1010.9 1011.0 0.2
30/04:00pm 12.6 7.3 9.8 83 1.4 N 28 39 15 21 1010.9 1011.0 0.2
30/03:30pm 12.7 6.0 9.5 81 1.6 N 35 50 19 27 1011.2 1011.3 0.2
30/03:00pm 12.8 6.3 10.2 84 1.3 N 35 44 19 24 1011.8 1011.9 0.2
30/02:30pm 12.9 6.4 10.4 85 1.3 N 35 48 19 26 1012.5 1012.7 0.2
30/02:00pm 12.7 5.1 10.4 86 1.2 N 41 54 22 29 1013.2 1013.3 0.2
30/01:50pm 12.7 5.8 10.2 85 1.3 N 37 57 20 31 1013.4 1013.5 0.2
30/01:30pm 12.9 4.9 10.4 85 1.3 N 43 59 23 32 1014.0 1014.1 0.2
30/01:00pm 13.1 5.1 10.5 84 1.4 N 43 65 23 35 1014.4 1014.5 0.2
30/12:30pm 13.2 4.7 10.6 84 1.4 N 46 65 25 35 1015.3 1015.4 0.2
30/12:21pm 13.0 5.0 10.4 84 1.4 N 43 65 23 35 1015.4 1015.5 0.2
30/12:00pm 13.5 5.7 11.0 85 1.3 N 43 57 23 31 1015.3 1015.4 0.2
30/11:30am 13.1 6.3 10.5 84 1.4 N 37 57 20 31 1016.8 1016.9 0.2
30/11:29am 13.1 6.3 10.6 85 1.3 N 37 57 20 31 1016.9 1017.0 0.2
30/11:27am 13.2 6.8 10.7 85 1.3 N 35 50 19 27 1017.1 1017.2 0.2
30/11:00am 12.7 8.6 11.3 91 0.7 N 24 32 13 17 1017.7 1017.8 0.2
30/10:30am 11.5 8.0 11.0 97 0.3 N 20 28 11 15 1017.8 1017.9 0.2
30/10:00am 9.9 6.3 9.9 100 0.0 NNE 19 22 10 12 1017.9 1018.0 0.2
30/09:30am 9.4 6.1 9.4 100 0.0 NNE 17 20 9 11 1018.4 1018.5 0.0
30/09:00am 8.6 5.8 8.6 100 0.0 N 13 19 7 10 1018.7 1018.8 0.6
30/08:30am 8.0 3.9 8.0 100 0.0 N 19 24 10 13 1018.8 1018.9 0.6
30/08:00am 7.0 3.1 7.0 100 0.0 N 17 20 9 11 1019.0 1019.1 0.6
30/07:30am 7.3 3.1 7.3 100 0.0 N 19 22 10 12 1019.4 1019.5 0.6
30/07:00am 7.7 4.3 7.7 100 0.0 N 15 19 8 10 1019.2 1019.3 0.6
30/06:30am 7.4 4.3 7.4 100 0.0 N 13 17 7 9 1019.5 1019.6 0.6
30/06:00am 8.0 4.3 8.0 100 0.0 N 17 20 9 11 1019.5 1019.6 0.6
30/05:30am 8.2 4.6 8.2 100 0.0 N 17 19 9 10 1019.5 1019.6 0.6
30/05:00am 8.6 5.1 8.6 100 0.0 N 17 22 9 12 1019.5 1019.6 0.6
30/04:30am 9.0 6.3 9.0 100 0.0 N 13 17 7 9 1019.8 1019.9 0.6
30/04:00am 9.2 6.6 9.2 100 0.0 N 13 15 7 8 1020.1 1020.2 0.6
30/03:30am 9.0 6.3 9.0 100 0.0 N 13 15 7 8 1020.3 1020.4 0.6
30/03:00am 9.4 7.2 9.4 100 0.0 N 11 15 6 8 1020.6 1020.7 0.6
30/02:30am 9.2 6.6 9.2 100 0.0 N 13 15 7 8 1020.8 1020.9 0.6
30/02:23am 9.2 6.6 9.2 100 0.0 N 13 15 7 8 1020.9 1021.0 0.6
30/02:00am 8.9 5.8 8.9 100 0.0 N 15 19 8 10 1021.0 1021.1 0.6
30/01:57am 8.9 5.8 8.9 100 0.0 N 15 19 8 10 1021.0 1021.1 0.6
30/01:30am 9.0 6.3 9.0 100 0.0 N 13 13 7 7 1021.0 1021.1 0.6
30/01:00am 8.9 6.2 8.9 100 0.0 N 13 15 7 8 1021.2 1021.3 0.6
30/12:30am 7.3 4.6 7.3 100 0.0 N 11 13 6 7 1021.3 1021.4 0.6
30/12:00am 7.8 4.8 7.8 100 0.0 N 13 13 7 7 1021.6 1021.7 0.6
 
Date/Time
EST
Temp
°C
App
Temp
°C
Dew
Point
°C
Rel
Hum
%
Delta-T
°C
Wind Press
QNH
hPa
Press
MSL
hPa
Rain since
9am
mm
Dir  Spd
km/h
Gust
km/h
Spd
kts
Gust
kts
29/11:30pm 8.3 5.1 8.3 100 0.0 N 15 17 8 9 1021.8 1021.9 0.6
29/11:00pm 8.9 6.2 8.9 100 0.0 NNW 13 15 7 8 1021.7 1021.8 0.6
29/10:30pm 8.9 6.2 8.9 100 0.0 NNW 13 15 7 8 1021.7 1021.8 0.6
29/10:00pm 8.7 6.3 8.7 100 0.0 NNW 11 13 6 7 1021.8 1021.9 0.6
29/09:30pm 10.1 7.7 10.1 100 0.0 NNW 13 17 7 9 1021.6 1021.7 0.6
29/09:00pm 9.8 7.3 9.7 99 0.0 NNW 13 15 7 8 1021.5 1021.6 0.6
29/08:30pm 10.2 8.2 10.1 99 0.1 NW 11 13 6 7 1021.5 1021.6 0.6
29/08:00pm 10.2 8.1 9.9 98 0.2 NW 11 13 6 7 1021.3 1021.4 0.6
29/07:30pm 11.0 9.4 10.1 94 0.5 WNW 9 13 5 7 1021.2 1021.3 0.6
29/07:00pm 11.7 9.5 10.8 94 0.5 WNW 13 15 7 8 1021.2 1021.3 0.6
29/06:30pm 11.7 9.8 10.6 93 0.6 WNW 11 13 6 7 1020.8 1020.9 0.6
29/06:00pm 12.1 10.0 11.2 94 0.5 WNW 13 15 7 8 1020.4 1020.5 0.6
29/05:30pm 12.5 9.6 11.1 91 0.7 W 17 22 9 12 1020.1 1020.2 0.6
29/05:00pm 13.0 9.9 11.6 91 0.7 W 19 26 10 14 1020.0 1020.1 0.6
29/04:30pm 13.3 9.9 11.4 88 1.0 W 20 28 11 15 1019.9 1020.0 0.6
29/04:00pm 13.5 9.8 11.4 87 1.1 W 22 32 12 17 1019.8 1019.9 0.6
29/03:30pm 13.6 9.2 11.7 88 1.0 W 26 33 14 18 1019.7 1019.8 0.6
29/03:00pm 13.8 9.1 12.0 89 1.0 W 28 35 15 19 1019.8 1019.9 0.6
29/02:30pm 13.1 9.6 12.3 95 0.4 WSW 22 32 12 17 1019.7 1019.8 0.6
29/02:00pm 15.0 10.1 12.5 85 1.4 W 30 39 16 21 1019.5 1019.6 0.6
29/01:30pm 14.0 8.4 11.5 85 1.3 W 32 43 17 23 1019.6 1019.7 0.6
29/01:00pm 13.8 9.2 12.2 90 0.9 W 28 39 15 21 1019.8 1019.9 0.6
29/12:33pm 12.8 7.7 12.0 95 0.4 W 30 48 16 26 1020.0 1020.1 0.6
29/12:30pm 12.5 6.8 11.7 95 0.4 W 33 48 18 26 1020.0 1020.1 0.6
29/12:00pm 12.0 7.6 11.8 99 0.1 WSW 26 33 14 18 1020.4 1020.5 0.6
29/11:56am 12.0 7.2 11.8 99 0.1 WSW 28 39 15 21 1020.5 1020.6 0.6
29/11:41am 12.1 6.0 11.9 99 0.1 W 35 59 19 32 1020.7 1020.8 0.4
29/11:34am 13.4 7.6 11.5 88 1.0 W 33 59 18 32 1020.7 1020.8 0.0
29/11:30am 14.0 8.3 11.7 86 1.2 WNW 33 43 18 23 1020.5 1020.6 0.0
29/11:00am 13.6 9.2 11.8 89 1.0 WNW 26 35 14 19 1020.6 1020.7 0.0
29/10:30am 13.3 9.7 12.0 92 0.7 WNW 22 33 12 18 1020.6 1020.7 0.0
29/10:00am 12.2 9.5 11.7 97 0.3 WNW 17 24 9 13 1020.7 1020.8 0.0
29/09:30am 11.9 9.6 11.7 99 0.1 NW 15 22 8 12 1020.5 1020.6 0.0
29/09:00am 11.5 8.2 11.5 100 0.0 NW 20 28 11 15 1020.5 1020.6 0.6
29/08:30am 11.3 7.9 11.3 100 0.0 WNW 20 32 11 17 1020.3 1020.4 0.6
29/08:00am 11.3 7.9 11.3 100 0.0 WNW 20 35 11 19 1020.2 1020.3 0.6
29/07:51am 11.2 7.4 11.2 100 0.0 WNW 22 35 12 19 1020.2 1020.3 0.6
29/07:37am 11.2 6.3 11.2 100 0.0 NW 28 35 15 19 1020.0 1020.1 0.6
29/07:30am 11.2 6.3 11.2 100 0.0 NW 28 33 15 18 1020.0 1020.1 0.4
29/07:00am 11.0 6.8 11.0 100 0.0 NW 24 32 13 17 1019.7 1019.8 0.4
29/06:46am 11.0 6.8 11.0 100 0.0 NW 24 33 13 18 1019.6 1019.7 0.4
29/06:30am 11.1 6.1 11.1 100 0.0 NW 28 35 15 19 1019.5 1019.6 0.4
29/06:12am 11.1 5.8 11.1 100 0.0 NW 30 43 16 23 1019.4 1019.5 0.4
29/06:09am 11.1 5.8 11.1 100 0.0 NW 30 43 16 23 1019.3 1019.4 0.4
29/06:00am 11.0 6.0 11.0 100 0.0 NW 28 35 15 19 1019.3 1019.4 0.2
29/05:30am 11.1 6.9 11.1 100 0.0 NW 24 35 13 19 1019.2 1019.3 0.2
29/05:12am 11.2 6.3 11.2 100 0.0 NW 28 37 15 20 1019.1 1019.2 0.0
29/05:00am 11.2 6.3 11.2 100 0.0 NW 28 35 15 19 1019.1 1019.2 0.0
29/04:30am 11.1 6.5 11.1 100 0.0 NW 26 33 14 18 1019.2 1019.3 0.0
29/04:00am 11.0 6.4 11.0 100 0.0 NW 26 32 14 17 1019.3 1019.4 0.0
29/03:30am 11.1 6.5 10.9 99 0.1 NW 26 35 14 19 1019.4 1019.5 0.0
29/03:00am 11.2 6.1 10.7 97 0.3 NW 28 37 15 20 1019.6 1019.7 0.0
29/02:30am 11.2 6.1 10.6 96 0.3 NW 28 37 15 20 1019.9 1020.0 0.0
29/02:00am 11.1 6.4 10.5 96 0.3 NNW 26 33 14 18 1020.0 1020.1 0.0
29/01:30am 11.0 5.9 10.5 97 0.3 NNW 28 33 15 18 1020.1 1020.2 0.0
29/01:00am 10.9 5.3 10.3 96 0.3 NW 30 41 16 22 1020.4 1020.5 0.0
29/12:30am 10.9 5.7 10.3 96 0.3 NW 28 33 15 18 1020.4 1020.5 0.0
29/12:00am 11.1 5.5 10.3 95 0.4 NW 30 41 16 22 1020.6 1020.7 0.0
 
Date/Time
EST
Temp
°C
App
Temp
°C
Dew
Point
°C
Rel
Hum
%
Delta-T
°C
Wind Press
QNH
hPa
Press
MSL
hPa
Rain since
9am
mm
Dir  Spd
km/h
Gust
km/h
Spd
kts
Gust
kts
28/11:30pm 11.2 5.7 10.4 95 0.4 NW 30 41 16 22 1020.8 1020.9 0.0
28/11:00pm 11.2 6.0 10.4 95 0.4 NW 28 39 15 21 1021.1 1021.2 0.0
28/10:30pm 11.3 5.7 10.2 93 0.6 NW 30 44 16 24 1021.3 1021.4 0.0
28/10:00pm 11.1 5.8 9.9 92 0.6 NW 28 37 15 20 1021.4 1021.5 0.0
28/09:30pm 11.3 6.0 9.7 90 0.8 NW 28 41 15 22 1021.5 1021.6 0.0
28/09:00pm 11.7 6.0 9.8 88 1.0 NW 30 39 16 21 1021.8 1021.9 0.0
28/08:30pm 11.9 7.0 9.8 87 1.1 NW 26 35 14 19 1021.8 1021.9 0.0
28/08:00pm 12.0 7.1 9.9 87 1.1 NW 26 33 14 18 1022.1 1022.2 0.0
28/07:30pm 12.0 7.9 10.1 88 1.0 NW 22 28 12 15 1022.1 1022.2 0.0
28/07:00pm 11.9 8.4 10.8 93 0.6 NW 20 28 11 15 1022.1 1022.2 0.0
28/06:30pm 12.4 8.5 10.8 90 0.8 NW 22 32 12 17 1022.0 1022.1 0.0
28/06:00pm 12.5 9.7 11.4 93 0.6 NW 17 26 9 14 1021.9 1022.0 0.0
28/05:30pm 12.8 10.0 11.2 90 0.8 WNW 17 24 9 13 1021.9 1022.0 0.0
28/05:00pm 13.0 9.8 11.4 90 0.8 WNW 19 26 10 14 1021.8 1021.9 0.0
28/04:30pm 13.1 10.0 11.5 90 0.9 WNW 19 26 10 14 1021.8 1021.9 0.0
28/04:00pm 13.5 9.7 11.0 85 1.3 WNW 22 35 12 19 1021.6 1021.7 0.0
28/03:30pm 14.6 10.6 11.7 83 1.6 WNW 24 35 13 19 1021.5 1021.6 0.0
28/03:00pm 14.8 9.9 11.4 80 1.8 WNW 28 39 15 21 1021.3 1021.4 0.0
28/02:30pm 14.6 10.0 11.2 80 1.8 WNW 26 39 14 21 1021.5 1021.6 0.0
28/02:00pm 14.3 9.3 10.9 80 1.8 WNW 28 46 15 25 1021.5 1021.6 0.0
28/01:44pm 14.2 9.2 10.8 80 1.8 WNW 28 46 15 25 1021.8 1021.9 0.0
28/01:30pm 14.4 9.5 11.2 81 1.7 WNW 28 44 15 24 1021.9 1022.0 0.0
28/01:00pm 12.9 8.3 11.0 88 1.0 WNW 26 33 14 18 1022.4 1022.5 0.0
28/12:30pm 13.3 9.2 11.4 88 1.0 WNW 24 39 13 21 1022.6 1022.7 0.0
28/12:00pm 13.1 9.1 11.7 91 0.7 WNW 24 35 13 19 1023.0 1023.1 0.0
28/11:30am 12.1 7.9 11.2 94 0.5 NW 24 35 13 19 1023.3 1023.4 0.0
28/11:00am 11.2 5.7 10.6 96 0.3 NW 30 41 16 22 1023.4 1023.5 0.0
28/10:30am 10.7 5.5 10.4 98 0.2 NW 28 37 15 20 1023.4 1023.5 0.0
28/10:00am 10.2 4.9 9.9 98 0.2 NW 28 39 15 21 1023.3 1023.4 0.0
28/09:30am 10.4 5.2 10.4 100 0.0 NW 28 35 15 19 1023.3 1023.4 0.0
28/09:00am 9.8 4.4 9.5 98 0.1 NW 28 35 15 19 1022.9 1023.0 1.0
28/08:33am 9.4 4.3 9.3 99 0.0 NW 26 33 14 18 1022.7 1022.8 1.0
28/08:30am 9.3 4.2 9.3 100 0.0 NW 26 35 14 19 1022.7 1022.8 1.0
28/08:22am 9.4 4.3 9.3 99 0.0 NW 26 35 14 19 1022.7 1022.8 1.0
28/08:00am 9.0 4.2 8.9 99 0.0 NW 24 32 13 17 1022.6 1022.7 1.0
28/07:30am 9.2 3.6 8.9 98 0.1 NW 28 41 15 22 1022.4 1022.5 1.0
28/07:00am 8.9 4.1 8.9 100 0.0 NW 24 32 13 17 1022.1 1022.2 1.0
28/06:30am 9.2 4.9 9.2 100 0.0 NW 22 28 12 15 1022.1 1022.2 1.0
28/06:00am 9.1 4.0 9.1 100 0.0 NW 26 33 14 18 1022.0 1022.1 1.0
28/05:30am 9.2 3.3 9.2 100 0.0 NW 30 37 16 20 1021.9 1022.0 1.0
28/05:00am 9.1 4.0 9.1 100 0.0 NW 26 35 14 19 1021.7 1021.8 1.0
28/04:30am 9.0 4.2 9.0 100 0.0 NW 24 30 13 16 1021.6 1021.7 1.0
28/04:00am 8.9 3.7 8.9 100 0.0 NW 26 37 14 20 1021.4 1021.5 1.0
28/03:30am 8.9 3.7 8.9 100 0.0 NW 26 33 14 18 1021.6 1021.7 1.0
28/03:00am 8.7 3.5 8.7 100 0.0 NW 26 37 14 20 1021.6 1021.7 1.0
28/02:30am 8.8 3.2 8.8 100 0.0 NW 28 35 15 19 1021.6 1021.7 1.0
28/02:05am 8.7 3.5 8.7 100 0.0 NW 26 35 14 19 1021.7 1021.8 1.0
28/02:00am 8.8 3.6 8.8 100 0.0 NW 26 33 14 18 1021.8 1021.9 1.0
28/01:50am 9.0 3.5 9.0 100 0.0 NW 28 35 15 19 1021.8 1021.9 1.0
28/01:30am 8.6 3.3 8.6 100 0.0 NW 26 33 14 18 1021.6 1021.7 1.0
28/01:24am 8.6 3.3 8.6 100 0.0 NW 26 33 14 18 1021.6 1021.7 1.0
28/01:01am 8.7 3.1 8.7 100 0.0 NW 28 35 15 19 1021.8 1021.9 0.6
28/01:00am 8.7 3.1 8.7 100 0.0 NW 28 35 15 19 1021.8 1021.9 0.6
28/12:30am 8.4 3.1 8.4 100 0.0 NW 26 33 14 18 1021.7 1021.8 0.6
28/12:16am 8.6 3.3 8.6 100 0.0 NW 26 35 14 19 1021.9 1022.0 0.6
28/12:01am 8.5 2.8 8.5 100 0.0 NW 28 39 15 21 1021.9 1022.0 0.6
28/12:00am 8.5 2.8 8.5 100 0.0 NW 28 39 15 21 1021.9 1022.0 0.6
 
Date/Time
EST
Temp
°C
App
Temp
°C
Dew
Point
°C
Rel
Hum
%
Delta-T
°C
Wind Press
QNH
hPa
Press
MSL
hPa
Rain since
9am
mm
Dir  Spd
km/h
Gust
km/h
Spd
kts
Gust
kts
27/11:30pm 8.6 3.7 8.6 100 0.0 NW 24 33 13 18 1021.8 1021.9 0.6
27/11:00pm 8.2 3.2 8.2 100 0.0 NW 24 32 13 17 1021.8 1021.9 0.6
27/10:30pm 8.3 3.0 8.3 100 0.0 NW 26 33 14 18 1021.7 1021.8 0.6
27/10:23pm 8.3 3.0 8.3 100 0.0 NW 26 33 14 18 1021.7 1021.8 0.6
27/10:09pm 8.5 3.2 8.5 100 0.0 NW 26 35 14 19 1021.7 1021.8 0.6
27/10:00pm 8.4 3.5 8.4 100 0.0 NW 24 32 13 17 1021.7 1021.8 0.6
27/09:40pm 8.2 3.2 8.2 100 0.0 NW 24 30 13 16 1021.6 1021.7 0.6
27/09:30pm 8.4 3.5 8.4 100 0.0 NW 24 33 13 18 1021.7 1021.8 0.6
27/09:19pm 8.5 3.6 8.5 100 0.0 NW 24 32 13 17 1021.8 1021.9 0.6
27/09:10pm 8.4 3.5 8.4 100 0.0 NW 24 32 13 17 1021.7 1021.8 0.6

Other Formats:

Comma delimited format used in spreadsheet applications
http://www.bom.gov.au/fwo/IDV60801/IDV60801.94837.axf

JavaScript Object Notation format (JSON) in row-major order
http://www.bom.gov.au/fwo/IDV60801/IDV60801.94837.json